Time;durP1;ratioP1;P1;durP2;ratioP2;P2;SDS_P1;SDS_P2;PMS_P1;PMS_P2;Temp;Humidity;BMP_temperature;BMP_pressure;BME280_temperature;BME280_humidity;BME280_pressure;Samples;Min_cycle;Max_cycle;Signal;HPM_P1;HPM_P2
2021/10/05 19:02:43;;;;;;;;;;;11.00;85.80;;;;;;5113511;27;19912;-95
2021/10/05 19:05:09;;;;;;;;;;;10.90;88.10;;;;;;5147499;27;19912;-93
2021/10/05 19:07:39;;;;;;;;;;;11.00;89.10;;;;;;5107664;28;20311;-94
2021/10/05 19:10:10;;;;;;;;;;;11.10;89.30;;;;;;5111621;28;20384;-93
2021/10/05 19:12:37;;;;;;;;;;;11.20;89.20;;;;;;5112113;28;20268;-94
2021/10/05 19:15:04;;;;;;;;;;;11.40;89.80;;;;;;5114628;28;19912;-94
2021/10/05 19:17:29;;;;;;;;;;;11.40;89.80;;;;;;5138647;27;20276;-95
2021/10/05 19:19:55;;;;;;;;;;;11.50;89.60;;;;;;5110329;28;19908;-92
2021/10/05 19:22:20;;;;;;;;;;;11.60;88.70;;;;;;5110505;28;19969;-93
2021/10/05 19:24:47;;;;;;;;;;;11.70;88.50;;;;;;5110539;28;19930;-93
2021/10/05 19:31:26;;;;;;;;;;;11.80;86.90;;;;;;5119572;27;20374;-92
2021/10/05 19:33:51;;;;;;;;;;;11.90;87.30;;;;;;5118891;28;19948;-94
2021/10/05 19:36:18;;;;;;;;;;;11.90;87.40;;;;;;5114496;28;19912;-94
2021/10/05 19:38:44;;;;;;;;;;;11.90;87.30;;;;;;5131496;27;19998;-95
2021/10/05 19:41:11;;;;;;;;;;;11.90;87.20;;;;;;5111000;28;20360;-95
2021/10/05 19:43:37;;;;;;;;;;;11.90;86.60;;;;;;5110807;28;19919;-93
2021/10/05 19:46:03;;;;;;;;;;;12.00;86.20;;;;;;5110888;28;19908;-94
2021/10/05 19:48:28;;;;;;;;;;;12.00;85.90;;;;;;5110854;28;20275;-95
2021/10/05 19:50:54;;;;;;;;;;;12.10;86.10;;;;;;5110686;28;19944;-94
2021/10/05 19:53:19;;;;;;;;;;;12.00;85.90;;;;;;5111012;28;19986;-94
2021/10/05 19:55:45;;;;;;;;;;;12.10;85.70;;;;;;5117020;28;19908;-91
2021/10/05 19:58:11;;;;;;;;;;;12.10;85.50;;;;;;5113879;28;19908;-89
2021/10/05 20:00:37;;;;;;;;;;;12.10;85.40;;;;;;5112241;28;19931;-93
2021/10/05 20:03:02;;;;;;;;;;;12.10;85.60;;;;;;5110725;28;19931;-94
2021/10/05 20:05:29;;;;;;;;;;;12.10;85.60;;;;;;5111753;28;19931;-91
2021/10/05 20:08:01;;;;;;;;;;;12.10;85.50;;;;;;5111718;28;19995;-94
2021/10/05 20:10:28;;;;;;;;;;;12.10;85.80;;;;;;5110654;28;19916;-91
2021/10/05 20:12:54;;;;;;;;;;;12.10;85.70;;;;;;5112789;28;20372;-92
2021/10/05 20:15:19;;;;;;;;;;;12.10;85.80;;;;;;5111427;28;19943;-92
2021/10/05 20:25:24;;;;;;;;;;;12.00;84.20;;;;;;5078851;28;19896;-93
2021/10/05 20:27:50;;;;;;;;;;;11.90;86.70;;;;;;5077543;28;19935;-96
2021/10/05 20:30:16;;;;;;;;;;;11.90;88.10;;;;;;5085684;28;19948;-93
2021/10/05 20:32:42;;;;;;;;;;;11.80;88.90;;;;;;5070176;28;19955;-91
2021/10/05 20:35:08;;;;;;;;;;;11.80;89.10;;;;;;5070491;28;19935;-93
2021/10/05 20:37:34;;;;;;;;;;;11.80;89.10;;;;;;5071671;28;19909;-90
2021/10/05 20:39:59;;;;;;;;;;;11.80;89.10;;;;;;5071625;28;19940;-91
2021/10/05 20:42:25;;;;;;;;;;;11.80;89.00;;;;;;5071451;28;20292;-92
2021/10/05 20:44:50;;;;;;;;;;;11.80;89.00;;;;;;5076403;28;19952;-95
2021/10/05 20:47:16;;;;;;;;;;;11.80;88.90;;;;;;5095999;28;19968;-94
2021/10/05 20:49:42;;;;;;;;;;;11.80;88.90;;;;;;5082527;28;20262;-96
2021/10/05 20:52:09;;;;;;;;;;;11.80;88.80;;;;;;5072391;28;19909;-96
2021/10/05 20:54:34;;;;;;;;;;;11.70;88.60;;;;;;5073301;28;20254;-93
